createdAt,value
2023-02-11T00:00:22.135Z,41.17
2023-02-11T00:02:49.045Z,40.90
2023-02-11T00:05:15.995Z,39.93
2023-02-11T00:07:42.784Z,41.70
2023-02-11T00:10:09.866Z,39.17
2023-02-11T00:12:38.159Z,39.00
2023-02-11T00:15:07.825Z,39.63
2023-02-11T00:17:34.595Z,39.50
2023-02-11T00:20:01.429Z,38.90
2023-02-11T00:22:28.190Z,40.23
2023-02-11T00:24:57.104Z,39.23
2023-02-11T00:27:23.942Z,37.83
2023-02-11T00:29:50.729Z,39.83
2023-02-11T00:32:17.426Z,38.57
2023-02-11T00:34:44.260Z,40.00
2023-02-11T00:37:12.064Z,40.00
2023-02-11T00:39:39.059Z,39.70
2023-02-11T00:42:05.898Z,39.30
2023-02-11T00:44:32.570Z,39.37
2023-02-11T00:46:59.329Z,41.13
2023-02-11T00:49:26.045Z,38.87
2023-02-11T00:51:52.726Z,40.17
2023-02-11T00:54:19.488Z,41.37
2023-02-11T00:56:46.199Z,42.93
2023-02-11T00:59:13.105Z,40.30
2023-02-11T01:01:40.106Z,40.67
2023-02-11T01:04:06.894Z,40.13
2023-02-11T01:06:33.588Z,40.47
2023-02-11T01:09:00.289Z,39.53
2023-02-11T01:11:27.124Z,42.30
2023-02-11T01:13:53.954Z,44.20
2023-02-11T01:16:21.401Z,40.90
2023-02-11T01:18:48.695Z,38.83
2023-02-11T01:21:16.162Z,40.83
2023-02-11T01:23:42.965Z,38.77
2023-02-11T01:26:09.772Z,40.87
2023-02-11T01:28:36.592Z,40.00
2023-02-11T01:31:03.931Z,40.27
2023-02-11T01:33:30.703Z,41.07
2023-02-11T01:36:01.844Z,42.50
2023-02-11T01:38:28.946Z,39.73
2023-02-11T01:41:02.376Z,38.20
2023-02-11T01:43:35.191Z,37.70
2023-02-11T01:46:29.388Z,39.73
2023-02-11T01:49:03.599Z,39.50
2023-02-11T01:51:55.053Z,38.60
2023-02-11T01:54:43.826Z,41.00
2023-02-11T01:57:22.147Z,40.30
2023-02-11T02:00:14.146Z,41.47
2023-02-11T02:03:00.612Z,41.17
2023-02-11T02:05:55.920Z,39.77
2023-02-11T02:08:36.374Z,37.80
2023-02-11T02:11:04.168Z,39.07
2023-02-11T02:13:33.400Z,39.73
2023-02-11T02:16:11.634Z,40.57
2023-02-11T02:19:15.304Z,40.07
2023-02-11T02:22:14.327Z,34.47
2023-02-11T02:24:56.373Z,38.17
2023-02-11T02:27:48.098Z,37.60
2023-02-11T02:30:50.161Z,37.87
2023-02-11T02:33:35.293Z,38.30
2023-02-11T02:36:37.033Z,37.47
2023-02-11T02:39:11.648Z,38.00
2023-02-11T02:41:39.558Z,38.47
2023-02-11T02:44:08.270Z,37.70
2023-02-11T02:46:36.414Z,37.90
2023-02-11T02:49:03.803Z,37.10
2023-02-11T02:52:01.349Z,38.23
2023-02-11T02:54:34.023Z,40.03
2023-02-11T02:57:10.132Z,39.30
2023-02-11T02:59:55.198Z,38.47
2023-02-11T03:02:37.030Z,38.47
2023-02-11T03:05:18.712Z,37.93
2023-02-11T03:07:58.724Z,35.10
2023-02-11T03:10:33.083Z,40.60
2023-02-11T03:13:01.101Z,38.50
2023-02-11T03:15:32.276Z,37.60
2023-02-11T03:18:02.100Z,37.87
2023-02-11T03:20:33.416Z,38.07
2023-02-11T03:23:26.978Z,37.63
2023-02-11T03:25:59.562Z,38.57
2023-02-11T03:28:41.302Z,39.57
2023-02-11T03:31:20.347Z,38.40
2023-02-11T03:34:14.833Z,38.57
2023-02-11T03:36:59.900Z,37.33
2023-02-11T03:39:33.246Z,37.50
2023-02-11T03:42:02.669Z,38.50
2023-02-11T03:44:38.937Z,38.63
2023-02-11T03:47:09.708Z,37.10
2023-02-11T03:49:38.479Z,37.60
2023-02-11T03:52:07.749Z,39.50
2023-02-11T03:54:35.760Z,36.60
2023-02-11T03:57:03.022Z,40.13
2023-02-11T03:59:30.081Z,37.77
2023-02-11T04:01:57.690Z,37.10
2023-02-11T04:04:24.436Z,36.60
2023-02-11T04:06:51.210Z,34.73
2023-02-11T04:09:17.964Z,36.33
2023-02-11T04:11:44.679Z,39.50
2023-02-11T04:14:11.403Z,39.40
2023-02-11T04:16:38.175Z,37.67
2023-02-11T04:19:05.101Z,38.57
2023-02-11T04:21:31.788Z,37.93
2023-02-11T04:23:58.533Z,34.63
2023-02-11T04:26:25.339Z,35.77
2023-02-11T04:28:52.031Z,36.73
2023-02-11T04:31:18.783Z,37.03
2023-02-11T04:33:45.611Z,36.80
2023-02-11T04:36:12.937Z,36.30
2023-02-11T04:38:39.794Z,37.10
2023-02-11T04:41:06.628Z,38.43
2023-02-11T04:43:33.418Z,37.80
2023-02-11T04:46:00.260Z,38.23
2023-02-11T04:48:27.150Z,34.73
2023-02-11T04:50:53.984Z,36.53
2023-02-11T04:53:20.842Z,34.93
2023-02-11T04:55:51.383Z,36.70
2023-02-11T04:58:18.980Z,37.30
2023-02-11T05:00:45.910Z,37.23
2023-02-11T05:03:13.739Z,36.10
2023-02-11T05:05:41.803Z,37.00
2023-02-11T05:08:10.123Z,35.13
2023-02-11T05:10:37.073Z,37.20
2023-02-11T05:13:03.941Z,36.23
2023-02-11T05:15:30.753Z,36.63
2023-02-11T05:17:57.480Z,38.73
2023-02-11T05:20:24.396Z,36.63
2023-02-11T05:22:51.147Z,36.13
2023-02-11T05:25:18.588Z,34.27
2023-02-11T05:27:45.323Z,35.07
2023-02-11T05:30:12.509Z,36.20
2023-02-11T05:32:39.315Z,34.00
2023-02-11T05:35:06.577Z,35.00
2023-02-11T05:37:33.301Z,34.67
2023-02-11T05:40:00.208Z,34.33
2023-02-11T05:42:27.034Z,33.00
2023-02-11T05:44:53.774Z,35.53
2023-02-11T05:47:20.515Z,33.83
2023-02-11T05:49:47.332Z,36.00
2023-02-11T05:52:14.326Z,32.90
2023-02-11T05:54:41.131Z,35.17
2023-02-11T05:57:08.114Z,35.93
2023-02-11T05:59:34.753Z,32.80
2023-02-11T06:02:02.046Z,31.67
2023-02-11T06:04:28.816Z,34.10
2023-02-11T06:06:55.489Z,33.53
2023-02-11T06:09:22.243Z,34.17
2023-02-11T06:11:48.984Z,33.27
2023-02-11T06:14:15.689Z,31.47
2023-02-11T06:16:42.388Z,33.27
2023-02-11T06:19:09.198Z,33.23
2023-02-11T06:21:43.563Z,30.00
2023-02-11T06:24:12.035Z,31.77
2023-02-11T06:26:38.780Z,31.23
2023-02-11T06:29:05.650Z,33.97
2023-02-11T06:31:32.470Z,33.50
2023-02-11T06:33:59.348Z,33.07
2023-02-11T06:36:26.205Z,32.63
2023-02-11T06:38:53.049Z,33.83
2023-02-11T06:41:20.369Z,33.53
2023-02-11T06:43:47.587Z,32.83
2023-02-11T06:46:14.689Z,32.10
2023-02-11T06:48:43.766Z,35.23
2023-02-11T06:51:13.705Z,36.47
2023-02-11T06:53:46.198Z,36.10
2023-02-11T06:56:16.103Z,34.70
2023-02-11T06:58:43.192Z,36.70
2023-02-11T07:01:13.242Z,35.80
2023-02-11T07:03:43.142Z,35.13
2023-02-11T07:06:16.375Z,32.20
2023-02-11T07:08:45.789Z,37.30
2023-02-11T07:11:17.931Z,32.17
2023-02-11T07:13:44.822Z,35.77
2023-02-11T07:16:14.752Z,35.77
2023-02-11T07:18:42.010Z,34.20
2023-02-11T07:21:11.049Z,36.63
2023-02-11T07:23:40.792Z,33.40
2023-02-11T07:26:09.510Z,34.43
2023-02-11T07:28:37.874Z,33.03
2023-02-11T07:31:11.692Z,34.53
2023-02-11T07:33:38.984Z,35.97
2023-02-11T07:36:07.458Z,35.50
2023-02-11T07:38:35.617Z,35.73
2023-02-11T07:41:04.649Z,34.53
2023-02-11T07:43:32.091Z,31.43
2023-02-11T07:45:58.855Z,33.10
2023-02-11T07:48:25.655Z,35.03
2023-02-11T07:50:52.307Z,35.70
2023-02-11T07:53:19.086Z,33.90
2023-02-11T07:55:45.879Z,33.80
2023-02-11T07:58:12.875Z,35.50
2023-02-11T08:00:39.547Z,36.07
2023-02-11T08:03:08.404Z,34.83
2023-02-11T08:05:38.576Z,33.07
2023-02-11T08:08:05.340Z,33.63
2023-02-11T08:10:32.136Z,34.17
2023-02-11T08:12:58.813Z,32.53
2023-02-11T08:15:25.515Z,33.00
2023-02-11T08:17:52.195Z,34.97
2023-02-11T08:20:19.110Z,31.73
2023-02-11T08:22:45.778Z,34.50
2023-02-11T08:25:12.478Z,33.90
2023-02-11T08:27:39.190Z,34.07
2023-02-11T08:30:06.440Z,33.03
2023-02-11T08:32:34.703Z,35.13
2023-02-11T08:35:01.416Z,33.27
2023-02-11T08:37:28.289Z,33.37
2023-02-11T08:39:55.075Z,32.90
2023-02-11T08:42:21.810Z,32.13
2023-02-11T08:44:48.590Z,32.63
2023-02-11T08:47:15.434Z,29.37
2023-02-11T08:49:42.423Z,30.40
2023-02-11T08:52:09.308Z,31.73
2023-02-11T08:54:36.948Z,30.93
2023-02-11T08:57:03.917Z,31.20
2023-02-11T08:59:30.757Z,30.97
2023-02-11T09:01:58.003Z,30.83
2023-02-11T09:04:24.805Z,30.93
2023-02-11T09:06:51.595Z,33.63
2023-02-11T09:09:18.376Z,33.13
2023-02-11T09:11:45.581Z,32.60
2023-02-11T09:14:21.310Z,33.03
2023-02-11T09:16:49.670Z,31.57
2023-02-11T09:19:17.520Z,32.50
2023-02-11T09:21:44.390Z,32.00
2023-02-11T09:24:12.000Z,31.43
2023-02-11T09:26:38.853Z,31.53
2023-02-11T09:29:05.897Z,32.30
2023-02-11T09:31:34.181Z,33.07
2023-02-11T09:34:04.583Z,32.53
2023-02-11T09:36:37.719Z,33.43
2023-02-11T09:39:07.463Z,32.50
2023-02-11T09:41:57.279Z,32.40
2023-02-11T09:44:31.840Z,29.97
2023-02-11T09:47:05.611Z,31.07
2023-02-11T09:50:00.966Z,30.47
2023-02-11T09:52:44.539Z,30.90
2023-02-11T09:55:55.632Z,30.20
2023-02-11T09:58:38.653Z,32.07
2023-02-11T10:01:39.312Z,30.83
2023-02-11T10:04:30.839Z,30.07
2023-02-11T10:07:12.567Z,27.53
2023-02-11T10:09:51.254Z,28.53
2023-02-11T10:12:21.087Z,26.97
2023-02-11T10:15:15.702Z,28.20
2023-02-11T10:17:42.429Z,28.40
2023-02-11T10:20:45.963Z,26.63
2023-02-11T10:23:35.826Z,25.33
2023-02-11T10:26:03.550Z,27.30
2023-02-11T10:28:34.152Z,26.93
2023-02-11T10:31:08.447Z,26.20
2023-02-11T10:33:43.484Z,25.57
2023-02-11T10:36:14.815Z,28.03
2023-02-11T10:38:41.561Z,24.47
2023-02-11T10:41:16.455Z,26.17
2023-02-11T10:43:43.691Z,25.03
2023-02-11T10:46:22.194Z,25.03
2023-02-11T10:48:52.791Z,24.27
2023-02-11T10:51:21.223Z,23.27
2023-02-11T10:53:50.814Z,22.73
2023-02-11T10:56:27.318Z,24.50
2023-02-11T10:59:01.307Z,22.50
2023-02-11T11:02:00.616Z,23.33
2023-02-11T11:04:30.468Z,20.37
2023-02-11T11:07:09.394Z,18.70
2023-02-11T11:09:45.230Z,19.97
2023-02-11T11:12:25.182Z,18.27
2023-02-11T11:14:57.404Z,16.70
2023-02-11T11:17:24.456Z,17.00
2023-02-11T11:19:51.255Z,19.73
2023-02-11T11:22:22.501Z,19.23
2023-02-11T11:24:55.379Z,18.93
2023-02-11T11:27:24.932Z,17.20
2023-02-11T11:29:54.974Z,16.67
2023-02-11T11:32:30.053Z,16.00
2023-02-11T11:35:02.642Z,16.03
2023-02-11T11:37:32.997Z,15.47
2023-02-11T11:40:08.338Z,13.93
2023-02-11T11:42:37.620Z,13.53
2023-02-11T11:45:16.240Z,12.50
2023-02-11T11:47:59.064Z,11.37
2023-02-11T11:50:44.426Z,13.17
2023-02-11T11:53:23.260Z,11.63
2023-02-11T11:55:58.593Z,12.93
2023-02-11T11:58:28.972Z,12.23
2023-02-11T12:01:23.106Z,13.10
2023-02-11T12:04:08.572Z,12.77
2023-02-11T12:06:58.552Z,11.17
2023-02-11T12:09:43.931Z,9.97
2023-02-11T12:12:23.633Z,10.37
2023-02-11T12:15:22.093Z,8.60
2023-02-11T12:18:25.015Z,7.90
2023-02-11T12:21:09.612Z,9.90
2023-02-11T12:24:31.066Z,9.47
2023-02-11T12:27:16.082Z,8.10
2023-02-11T12:30:39.273Z,8.80
2023-02-11T12:33:11.899Z,8.80
2023-02-11T12:36:05.070Z,9.77
2023-02-11T12:38:57.706Z,8.50
2023-02-11T12:41:59.984Z,9.43
2023-02-11T12:44:32.593Z,8.73
2023-02-11T12:47:25.281Z,11.07
2023-02-11T12:50:10.438Z,9.90
2023-02-11T12:53:04.637Z,11.20
2023-02-11T12:55:37.267Z,11.27
2023-02-11T12:58:06.095Z,10.73
2023-02-11T13:00:43.745Z,11.20
2023-02-11T13:03:23.955Z,11.97
2023-02-11T13:05:58.606Z,10.30
2023-02-11T13:08:35.470Z,12.03
2023-02-11T13:11:14.270Z,11.70
2023-02-11T13:14:21.865Z,11.77
2023-02-11T13:16:50.952Z,15.53
2023-02-11T13:19:24.253Z,14.47
2023-02-11T13:22:10.777Z,14.53
2023-02-11T13:25:14.225Z,15.63
2023-02-11T13:27:59.884Z,15.97
2023-02-11T13:30:35.953Z,17.03
2023-02-11T13:33:06.746Z,16.70
2023-02-11T13:35:59.581Z,16.23
2023-02-11T13:38:29.028Z,15.50
2023-02-11T13:41:06.825Z,16.27
2023-02-11T13:43:36.190Z,17.10
2023-02-11T13:46:04.744Z,17.03
2023-02-11T13:49:00.945Z,20.03
2023-02-11T13:51:42.830Z,18.30
2023-02-11T13:54:22.465Z,17.17
2023-02-11T13:57:21.176Z,16.87
2023-02-11T13:59:49.655Z,16.47
2023-02-11T14:02:44.200Z,18.63
2023-02-11T14:05:47.121Z,17.73
2023-02-11T14:08:39.845Z,17.20
2023-02-11T14:11:29.409Z,18.07
2023-02-11T14:14:14.878Z,18.80
2023-02-11T14:17:00.226Z,17.53
2023-02-11T14:19:44.650Z,18.37
2023-02-11T14:22:17.332Z,19.30
2023-02-11T14:24:51.781Z,18.67
2023-02-11T14:27:21.363Z,18.07
2023-02-11T14:30:09.927Z,17.47
2023-02-11T14:33:07.683Z,17.37
2023-02-11T14:35:37.312Z,18.73
2023-02-11T14:38:12.908Z,19.43
2023-02-11T14:41:05.618Z,16.33
2023-02-11T14:43:47.982Z,18.30
2023-02-11T14:46:19.817Z,17.27
2023-02-11T14:48:53.576Z,16.37
2023-02-11T14:51:26.991Z,18.33
2023-02-11T14:53:59.308Z,18.20
2023-02-11T14:56:31.057Z,17.60
2023-02-11T14:58:58.535Z,18.20
2023-02-11T15:01:35.741Z,16.60
2023-02-11T15:04:05.295Z,17.17
2023-02-11T15:06:33.419Z,17.13
2023-02-11T15:09:13.152Z,17.07
2023-02-11T15:11:42.346Z,17.00
2023-02-11T15:14:21.276Z,19.37
2023-02-11T15:16:48.580Z,17.03
2023-02-11T15:19:21.299Z,17.10
2023-02-11T15:21:48.534Z,16.47
2023-02-11T15:24:30.837Z,17.27
2023-02-11T15:27:03.561Z,17.30
2023-02-11T15:29:49.401Z,15.93
2023-02-11T15:32:17.426Z,15.30
2023-02-11T15:34:46.138Z,16.90
2023-02-11T15:37:32.527Z,19.57
2023-02-11T15:40:23.477Z,17.77
2023-02-11T15:42:58.317Z,16.63
2023-02-11T15:45:35.278Z,18.07
2023-02-11T15:48:13.529Z,18.53
2023-02-11T15:50:42.657Z,16.60
2023-02-11T15:53:40.668Z,17.40
2023-02-11T15:56:19.364Z,19.00
2023-02-11T15:58:49.507Z,17.80
2023-02-11T16:01:16.423Z,17.20
2023-02-11T16:03:44.125Z,19.63
2023-02-11T16:06:21.574Z,17.40
2023-02-11T16:09:25.346Z,16.07
2023-02-11T16:11:52.065Z,18.33
2023-02-11T16:14:30.880Z,18.50
2023-02-11T16:17:05.087Z,18.63
2023-02-11T16:19:33.583Z,18.10
2023-02-11T16:22:06.315Z,19.40
2023-02-11T16:24:35.163Z,19.43
2023-02-11T16:27:04.592Z,19.57
2023-02-11T16:29:35.184Z,19.50
2023-02-11T16:32:08.592Z,21.43
2023-02-11T16:34:36.191Z,21.10
2023-02-11T16:37:06.094Z,20.97
2023-02-11T16:39:33.444Z,18.90
2023-02-11T16:42:00.794Z,19.33
2023-02-11T16:44:28.199Z,20.73
2023-02-11T16:46:58.485Z,20.40
2023-02-11T16:49:31.158Z,20.13
2023-02-11T16:52:01.361Z,20.60
2023-02-11T16:54:29.398Z,20.30
2023-02-11T16:56:56.629Z,20.97
2023-02-11T16:59:23.724Z,22.33
2023-02-11T17:01:52.891Z,20.83
2023-02-11T17:04:26.091Z,23.97
2023-02-11T17:06:53.045Z,21.37
2023-02-11T17:09:30.528Z,23.23
2023-02-11T17:11:57.860Z,22.80
2023-02-11T17:14:24.675Z,22.60
2023-02-11T17:16:51.550Z,22.23
2023-02-11T17:19:20.972Z,23.50
2023-02-11T17:21:49.925Z,24.40
2023-02-11T17:24:16.816Z,22.53
2023-02-11T17:26:44.796Z,24.57
2023-02-11T17:29:15.274Z,23.73
2023-02-11T17:31:42.440Z,23.40
2023-02-11T17:34:09.680Z,23.37
2023-02-11T17:36:36.648Z,24.40
2023-02-11T17:39:08.150Z,25.13
2023-02-11T17:41:36.951Z,24.63
2023-02-11T17:44:04.508Z,25.80
2023-02-11T17:46:32.298Z,24.80
2023-02-11T17:48:59.605Z,24.73
2023-02-11T17:51:30.589Z,27.60
2023-02-11T17:53:59.722Z,24.33
2023-02-11T17:56:26.548Z,23.07
2023-02-11T17:58:53.463Z,19.53
2023-02-11T18:01:20.536Z,25.47
2023-02-11T18:03:47.400Z,26.40
2023-02-11T18:06:14.360Z,24.07
2023-02-11T18:08:43.071Z,25.10
2023-02-11T18:11:12.167Z,25.27
2023-02-11T18:13:39.096Z,25.73
2023-02-11T18:16:08.494Z,27.53
2023-02-11T18:18:35.781Z,27.33
2023-02-11T18:21:08.888Z,26.47
2023-02-11T18:23:36.050Z,25.13
2023-02-11T18:26:03.127Z,26.03
2023-02-11T18:28:30.075Z,24.37
2023-02-11T18:30:58.954Z,26.53
2023-02-11T18:33:26.239Z,24.33
2023-02-11T18:35:53.524Z,24.50
2023-02-11T18:38:20.558Z,23.80
2023-02-11T18:40:49.709Z,25.13
2023-02-11T18:43:17.206Z,25.40
2023-02-11T18:45:44.789Z,26.70
2023-02-11T18:48:12.204Z,25.37
2023-02-11T18:50:45.880Z,24.93
2023-02-11T18:53:15.634Z,25.40
2023-02-11T18:55:43.889Z,27.87
2023-02-11T18:58:11.116Z,25.87
2023-02-11T19:00:40.778Z,25.23
2023-02-11T19:03:07.662Z,26.50
2023-02-11T19:05:48.300Z,26.50
2023-02-11T19:08:17.139Z,28.40
2023-02-11T19:10:46.574Z,26.70
2023-02-11T19:13:14.383Z,28.90
2023-02-11T19:15:45.618Z,27.47
2023-02-11T19:18:14.268Z,29.07
2023-02-11T19:20:42.745Z,31.33
2023-02-11T19:23:10.081Z,29.90
2023-02-11T19:25:37.378Z,30.83
2023-02-11T19:28:04.385Z,30.20
2023-02-11T19:30:31.257Z,28.40
2023-02-11T19:32:58.370Z,29.10
2023-02-11T19:35:25.729Z,28.50
2023-02-11T19:37:52.552Z,28.27
2023-02-11T19:40:21.268Z,27.70
2023-02-11T19:42:48.248Z,29.20
2023-02-11T19:45:15.189Z,27.77
2023-02-11T19:47:42.170Z,28.60
2023-02-11T19:50:09.559Z,27.60
2023-02-11T19:52:40.624Z,27.50
2023-02-11T19:55:08.092Z,29.60
2023-02-11T19:57:36.132Z,29.90
2023-02-11T20:00:03.347Z,28.10
2023-02-11T20:02:31.218Z,29.03
2023-02-11T20:04:58.031Z,29.53
2023-02-11T20:07:24.792Z,26.97
2023-02-11T20:09:53.632Z,27.10
2023-02-11T20:12:21.783Z,26.80
2023-02-11T20:14:48.656Z,28.83
2023-02-11T20:17:15.513Z,26.80
2023-02-11T20:19:42.334Z,28.47
2023-02-11T20:22:09.146Z,25.43
2023-02-11T20:24:36.206Z,24.90
2023-02-11T20:27:02.964Z,28.03
2023-02-11T20:29:31.864Z,28.67
2023-02-11T20:31:58.794Z,28.47
2023-02-11T20:34:25.839Z,27.57
2023-02-11T20:36:52.890Z,30.27
2023-02-11T20:39:22.258Z,28.27
2023-02-11T20:41:50.324Z,28.80
2023-02-11T20:44:17.065Z,29.67
2023-02-11T20:46:46.729Z,30.40
2023-02-11T20:49:15.638Z,30.30
2023-02-11T20:51:42.852Z,29.67
2023-02-11T20:54:19.544Z,29.73
2023-02-11T20:56:48.197Z,28.00
2023-02-11T20:59:16.687Z,29.83
2023-02-11T21:01:48.475Z,30.03
2023-02-11T21:04:20.435Z,27.90
2023-02-11T21:06:49.470Z,29.20
2023-02-11T21:09:22.201Z,31.77
2023-02-11T21:11:51.558Z,29.93
2023-02-11T21:14:19.251Z,30.70
2023-02-11T21:16:47.315Z,29.27
2023-02-11T21:19:14.652Z,30.13
2023-02-11T21:21:41.767Z,30.73
2023-02-11T21:24:09.693Z,31.07
2023-02-11T21:26:37.598Z,30.40
2023-02-11T21:29:07.299Z,30.43
2023-02-11T21:31:35.995Z,29.00
2023-02-11T21:34:03.039Z,31.27
2023-02-11T21:36:30.579Z,31.33
2023-02-11T21:38:57.655Z,31.80
2023-02-11T21:41:24.861Z,39.27
2023-02-11T21:43:52.727Z,34.83
2023-02-11T21:46:20.416Z,34.20
2023-02-11T21:48:47.530Z,33.30
2023-02-11T21:51:17.645Z,33.13
2023-02-11T21:53:44.706Z,32.00
2023-02-11T21:56:14.508Z,34.73
2023-02-11T21:58:41.402Z,35.40
2023-02-11T22:01:19.024Z,32.63
2023-02-11T22:03:46.302Z,32.47
2023-02-11T22:06:16.853Z,33.10
2023-02-11T22:08:43.785Z,33.10
2023-02-11T22:11:12.654Z,33.73
2023-02-11T22:13:40.075Z,33.80
2023-02-11T22:16:12.630Z,34.73
2023-02-11T22:18:39.544Z,32.17
2023-02-11T22:21:11.787Z,33.37
2023-02-11T22:23:39.253Z,33.70
2023-02-11T22:26:11.471Z,33.80
2023-02-11T22:28:40.593Z,33.10
2023-02-11T22:31:12.416Z,31.93
2023-02-11T22:33:39.501Z,32.33
2023-02-11T22:36:12.203Z,33.57
2023-02-11T22:38:39.119Z,30.50
2023-02-11T22:41:08.038Z,31.70
2023-02-11T22:43:35.041Z,31.53
2023-02-11T22:46:03.409Z,31.63
2023-02-11T22:48:30.700Z,31.87
2023-02-11T22:51:03.353Z,30.97
2023-02-11T22:53:30.281Z,34.33
2023-02-11T22:55:57.539Z,31.77
2023-02-11T22:58:24.938Z,33.67
2023-02-11T23:00:51.665Z,34.93
2023-02-11T23:03:18.445Z,32.03
2023-02-11T23:05:45.125Z,33.17
2023-02-11T23:08:12.063Z,34.50
2023-02-11T23:10:39.916Z,39.23
2023-02-11T23:13:07.801Z,39.97
2023-02-11T23:15:38.469Z,40.27
2023-02-11T23:18:05.455Z,45.23
2023-02-11T23:20:35.307Z,40.13
2023-02-11T23:23:02.190Z,40.87
2023-02-11T23:25:29.099Z,39.70
2023-02-11T23:27:56.113Z,37.53
2023-02-11T23:30:23.156Z,37.17
2023-02-11T23:32:50.899Z,36.73
2023-02-11T23:35:22.045Z,33.87
2023-02-11T23:37:55.128Z,34.60
2023-02-11T23:40:22.107Z,34.90
2023-02-11T23:42:49.135Z,34.20
2023-02-11T23:45:16.018Z,35.00
2023-02-11T23:47:42.864Z,36.60
2023-02-11T23:50:10.308Z,33.87
2023-02-11T23:52:37.480Z,34.57
2023-02-11T23:55:04.790Z,34.00
2023-02-11T23:57:35.116Z,34.00
